Time;durP1;ratioP1;P1;durP2;ratioP2;P2;SDS_P1;SDS_P2;PMS_P1;PMS_P2;Temp;Humidity;BMP_temperature;BMP_pressure;BME280_temperature;BME280_humidity;BME280_pressure;Samples;Min_cycle;Max_cycle;Signal;HPM_P1;HPM_P2
2022/05/05 00:01:07;;;;;;;4.80;1.60;;;;;;;7.67;41.89;99582.31;4941179;28;20149;-77
2022/05/05 00:03:35;;;;;;;4.97;1.70;;;;;;;7.70;41.96;99598.09;4973013;28;20143;-76
2022/05/05 00:06:00;;;;;;;7.05;1.70;;;;;;;7.70;41.97;99591.84;4955422;28;20098;-75
2022/05/05 00:08:27;;;;;;;5.65;1.70;;;;;;;7.64;42.14;99594.53;4971965;28;20535;-77
2022/05/05 00:16:23;;;;;;;5.53;1.65;;;;;;;7.57;42.29;99604.81;4972059;28;20141;-76
2022/05/05 00:18:50;;;;;;;4.03;1.55;;;;;;;7.60;42.00;99608.91;4971062;28;20050;-77
2022/05/05 00:21:16;;;;;;;4.00;1.65;;;;;;;7.55;42.04;99608.88;4965648;28;20077;-76
2022/05/05 00:23:42;;;;;;;4.00;1.63;;;;;;;7.55;41.99;99614.31;4972974;28;20455;-76
2022/05/05 00:26:09;;;;;;;6.72;1.50;;;;;;;7.52;41.93;99610.19;4955998;28;20054;-76
2022/05/05 00:28:35;;;;;;;4.78;1.70;;;;;;;7.55;41.82;99623.28;4971162;28;20086;-75
2022/05/05 00:31:01;;;;;;;5.80;1.80;;;;;;;7.50;41.97;99629.53;4956290;28;20507;-77
2022/05/05 00:33:28;;;;;;;4.05;1.50;;;;;;;7.54;41.78;99637.16;4973226;28;20051;-76
2022/05/05 00:35:55;;;;;;;14.85;1.90;;;;;;;7.51;41.88;99631.16;4972665;28;20050;-76
2022/05/05 00:38:21;;;;;;;5.00;1.85;;;;;;;7.42;41.97;99627.25;4940453;28;20570;-77
2022/05/05 00:40:47;;;;;;;4.50;1.75;;;;;;;7.48;41.99;99636.28;4972706;28;20539;-77
2022/05/05 00:43:14;;;;;;;6.45;1.95;;;;;;;7.48;42.10;99636.28;4973354;28;20137;-77
2022/05/05 00:45:40;;;;;;;8.18;2.00;;;;;;;7.45;42.15;99637.63;4939250;28;20054;-77
2022/05/05 00:48:09;;;;;;;10.68;2.03;;;;;;;7.42;42.40;99640.06;4970388;28;20062;-77
2022/05/05 00:50:36;;;;;;;7.95;2.30;;;;;;;7.39;42.54;99641.38;4955830;28;20089;-77
2022/05/05 00:53:04;;;;;;;5.93;2.05;;;;;;;7.31;42.80;99645.38;4955715;28;20158;-76
2022/05/05 00:55:32;;;;;;;6.90;1.80;;;;;;;7.31;42.61;99644.56;4932520;28;20058;-77
2022/05/05 00:57:58;;;;;;;5.13;1.80;;;;;;;7.24;42.73;99642.88;4937357;28;20042;-76
2022/05/05 01:00:25;;;;;;;9.18;2.20;;;;;;;7.27;42.97;99654.31;4973204;28;20045;-76
2022/05/05 01:02:52;;;;;;;6.63;2.10;;;;;;;7.23;43.04;99649.38;4972416;28;20059;-77
2022/05/05 01:05:19;;;;;;;8.57;2.20;;;;;;;7.23;43.24;99664.88;4972566;28;20046;-78
2022/05/05 01:07:46;;;;;;;10.43;2.30;;;;;;;7.18;43.44;99665.66;4960953;28;20455;-76
2022/05/05 01:10:14;;;;;;;6.25;1.88;;;;;;;7.23;43.36;99664.88;4986415;28;20054;-77
2022/05/05 01:12:40;;;;;;;9.50;2.45;;;;;;;7.22;43.33;99666.78;4962368;28;20058;-76
2022/05/05 01:15:07;;;;;;;7.35;1.90;;;;;;;7.16;43.50;99670.50;4972577;28;20082;-76
2022/05/05 01:17:33;;;;;;;8.95;2.13;;;;;;;7.04;43.66;99657.06;4971811;28;20078;-75
2022/05/05 01:20:09;;;;;;;6.97;2.05;;;;;;;7.09;43.59;99669.91;4971540;28;20162;-75
2022/05/05 01:22:36;;;;;;;10.57;2.20;;;;;;;7.11;43.55;99680.53;4970113;28;20047;-75
2022/05/05 01:30:32;;;;;;;6.40;2.00;;;;;;;7.06;43.64;99675.84;4970861;28;20393;-76
2022/05/05 01:32:58;;;;;;;5.10;1.90;;;;;;;7.06;43.62;99684.81;4971519;28;20061;-76
2022/05/05 01:35:24;;;;;;;6.40;1.77;;;;;;;7.07;43.69;99691.09;4955277;28;20090;-75
2022/05/05 01:37:51;;;;;;;5.28;1.80;;;;;;;7.09;43.69;99692.47;4953214;28;20047;-75
2022/05/05 01:40:17;;;;;;;5.47;2.10;;;;;;;7.13;43.52;99697.41;4970921;28;20047;-75
2022/05/05 01:42:44;;;;;;;5.65;2.08;;;;;;;7.09;43.67;99702.53;4971403;28;20066;-75
2022/05/05 01:45:10;;;;;;;6.80;2.00;;;;;;;7.07;43.64;99708.22;4954106;28;20516;-76
2022/05/05 01:47:37;;;;;;;10.23;2.17;;;;;;;7.03;43.91;99717.16;4971329;28;20139;-77
2022/05/05 01:50:03;;;;;;;5.47;2.20;;;;;;;6.99;43.88;99716.81;4970947;28;20090;-75
2022/05/05 01:52:29;;;;;;;6.60;2.50;;;;;;;7.02;43.55;99712.75;4957292;28;20404;-76
2022/05/05 01:54:56;;;;;;;8.43;2.40;;;;;;;6.98;43.79;99719.78;4952842;29;20075;-78
2022/05/05 01:57:22;;;;;;;7.32;2.10;;;;;;;6.93;43.96;99715.94;4945775;28;20520;-77
2022/05/05 01:59:48;;;;;;;6.38;2.30;;;;;;;6.97;43.68;99721.69;4967342;28;20138;-77
2022/05/05 02:02:15;;;;;;;6.78;2.17;;;;;;;7.01;43.78;99727.44;4971213;28;20047;-77
2022/05/05 02:04:41;;;;;;;5.95;2.10;;;;;;;7.00;43.59;99734.78;4971023;28;20054;-77
2022/05/05 02:07:07;;;;;;;5.47;2.10;;;;;;;6.92;43.80;99727.88;4966645;28;20047;-77
2022/05/05 02:09:33;;;;;;;5.47;2.15;;;;;;;6.90;43.59;99732.75;4971896;28;20057;-76
2022/05/05 02:12:00;;;;;;;8.48;2.90;;;;;;;6.88;43.61;99739.50;4960854;28;20050;-76
2022/05/05 02:14:27;;;;;;;9.43;2.57;;;;;;;6.90;43.68;99735.47;4971579;28;20250;-76
2022/05/05 02:16:53;;;;;;;11.20;2.35;;;;;;;6.95;43.44;99738.25;4971238;28;20058;-76
2022/05/05 02:19:19;;;;;;;7.40;2.17;;;;;;;7.00;43.34;99739.38;4953578;28;20668;-75
2022/05/05 02:21:45;;;;;;;6.75;2.45;;;;;;;7.01;43.26;99739.13;4953416;28;20141;-77
2022/05/05 02:24:11;;;;;;;4.93;1.80;;;;;;;6.97;43.36;99746.16;4954474;28;20054;-76
2022/05/05 02:26:38;;;;;;;7.28;2.17;;;;;;;7.00;43.30;99747.53;4970576;28;20038;-77
2022/05/05 02:29:05;;;;;;;6.63;2.53;;;;;;;6.92;43.26;99727.03;4969505;28;20050;-77
2022/05/05 02:31:31;;;;;;;6.40;2.30;;;;;;;7.07;43.11;99749.00;4971731;28;20047;-77
2022/05/05 02:33:57;;;;;;;7.28;2.50;;;;;;;6.97;43.19;99754.31;4971925;28;20659;-77
2022/05/05 02:39:08;;;;;;;6.43;2.40;;;;;;;7.06;43.13;99760.13;4969782;28;20050;-76
2022/05/05 02:41:34;;;;;;;8.48;2.60;;;;;;;7.04;43.17;99771.25;4938115;28;20553;-77
2022/05/05 02:44:00;;;;;;;7.78;2.55;;;;;;;7.08;43.16;99777.81;4936561;28;20043;-78
2022/05/05 02:46:27;;;;;;;13.77;2.40;;;;;;;7.04;43.11;99763.09;4970466;28;20058;-77
2022/05/05 02:48:54;;;;;;;11.88;2.40;;;;;;;7.04;43.17;99776.69;4969941;28;20077;-77
2022/05/05 02:51:20;;;;;;;8.57;2.50;;;;;;;7.00;43.31;99782.88;4954016;28;20467;-76
2022/05/05 02:56:31;;;;;;;6.43;2.40;;;;;;;7.04;43.29;99789.47;4964470;28;20059;-77
2022/05/05 02:58:57;;;;;;;5.65;2.35;;;;;;;7.03;43.28;99787.84;4970417;28;20046;-79
2022/05/05 03:01:23;;;;;;;6.82;2.13;;;;;;;7.06;43.19;99793.56;4936815;28;20050;-79
2022/05/05 03:03:50;;;;;;;7.03;2.13;;;;;;;7.06;43.13;99800.91;4933881;28;20138;-78
2022/05/05 03:06:16;;;;;;;7.22;2.28;;;;;;;7.05;43.29;99799.28;4950917;28;20051;-79
2022/05/05 03:08:42;;;;;;;9.98;2.70;;;;;;;7.07;43.07;99797.13;4951321;28;20047;-78
2022/05/05 03:11:09;;;;;;;7.13;2.25;;;;;;;7.13;42.96;99795.28;4952835;28;20046;-78
2022/05/05 03:13:36;;;;;;;10.52;2.28;;;;;;;7.21;42.79;99794.84;4969083;28;20055;-79
2022/05/05 03:16:03;;;;;;;6.35;2.30;;;;;;;7.33;42.65;99800.16;4952284;29;20102;-79
2022/05/05 03:18:29;;;;;;;6.33;2.20;;;;;;;7.32;42.58;99790.34;4973033;28;20059;-79
2022/05/05 03:20:56;;;;;;;9.05;2.10;;;;;;;7.34;42.54;99790.94;4973566;28;20367;-77
2022/05/05 03:23:25;;;;;;;6.65;1.90;;;;;;;7.48;42.33;99807.69;4970878;28;20046;-79
2022/05/05 03:25:52;;;;;;;7.63;2.30;;;;;;;7.42;42.22;99812.25;4966163;28;20101;-78
2022/05/05 03:28:18;;;;;;;6.75;2.20;;;;;;;7.36;42.45;99805.09;4956400;28;20058;-78
2022/05/05 03:30:44;;;;;;;6.80;2.20;;;;;;;7.32;42.19;99812.94;4954793;28;20631;-79
2022/05/05 03:33:10;;;;;;;4.70;1.75;;;;;;;7.31;42.16;99819.47;4972826;28;20054;-79
2022/05/05 03:35:37;;;;;;;8.65;2.10;;;;;;;7.36;42.20;99816.00;4956196;28;20101;-78
2022/05/05 03:38:04;;;;;;;7.70;2.17;;;;;;;7.40;42.31;99817.13;4973236;28;20054;-78
2022/05/05 03:40:30;;;;;;;6.75;2.20;;;;;;;7.48;42.07;99826.72;4935693;28;20061;-76
2022/05/05 03:42:57;;;;;;;8.52;2.50;;;;;;;7.49;42.11;99836.53;4973096;28;20061;-75
2022/05/05 03:45:23;;;;;;;6.15;2.08;;;;;;;7.50;41.94;99833.56;4972630;28;20154;-76
2022/05/05 03:47:55;;;;;;;5.72;1.90;;;;;;;7.44;42.07;99836.50;4973782;28;20074;-76
2022/05/05 03:50:24;;;;;;;6.50;2.00;;;;;;;7.37;42.07;99836.66;4956020;28;20062;-76
2022/05/05 03:52:51;;;;;;;7.85;2.10;;;;;;;7.51;42.17;99848.81;4973225;28;20051;-75
2022/05/05 03:55:18;;;;;;;8.27;2.50;;;;;;;7.57;41.90;99840.72;4972245;28;20065;-75
2022/05/05 03:57:44;;;;;;;5.80;2.00;;;;;;;7.64;41.53;99844.88;4938127;28;20055;-75
2022/05/05 04:00:11;;;;;;;7.28;2.38;;;;;;;7.62;41.74;99849.75;4927539;28;20273;-77
2022/05/05 04:02:39;;;;;;;8.90;2.13;;;;;;;7.70;41.45;99847.66;4954512;28;20055;-76
2022/05/05 04:05:06;;;;;;;8.23;2.45;;;;;;;7.74;41.41;99849.63;4973033;28;20047;-77
2022/05/05 04:07:33;;;;;;;16.05;2.40;;;;;;;7.78;41.53;99864.38;4970256;28;20070;-76
2022/05/05 04:09:59;;;;;;;8.95;2.70;;;;;;;7.80;41.53;99864.94;4957392;28;20055;-76
2022/05/05 04:12:26;;;;;;;6.50;2.38;;;;;;;7.84;41.57;99869.88;4954751;28;20060;-75
2022/05/05 04:14:52;;;;;;;8.57;2.30;;;;;;;7.87;41.42;99869.38;4971862;28;20050;-77
2022/05/05 04:17:18;;;;;;;7.57;2.35;;;;;;;7.92;41.62;99875.69;4933920;29;20051;-75
2022/05/05 04:19:44;;;;;;;7.32;2.47;;;;;;;8.00;41.24;99879.88;4946688;28;20051;-78
2022/05/05 04:22:11;;;;;;;8.95;2.83;;;;;;;8.05;41.16;99888.06;4936967;29;20083;-76
2022/05/05 04:24:37;;;;;;;7.45;2.40;;;;;;;7.92;41.41;99872.13;4953579;28;20114;-76
2022/05/05 04:27:04;;;;;;;7.78;2.60;;;;;;;7.89;41.30;99880.81;4969329;28;20051;-77
2022/05/05 04:29:31;;;;;;;7.15;2.67;;;;;;;7.88;41.13;99890.91;4956055;28;20464;-76
2022/05/05 04:31:58;;;;;;;8.15;2.55;;;;;;;7.95;41.06;99891.53;4972861;28;20047;-76
2022/05/05 04:34:23;;;;;;;7.88;2.83;;;;;;;7.92;40.70;99891.19;4971868;28;20042;-77
2022/05/05 04:36:50;;;;;;;8.15;2.78;;;;;;;7.94;40.84;99898.03;4960237;28;20046;-78
2022/05/05 04:39:16;;;;;;;9.13;2.33;;;;;;;7.96;40.88;99903.25;4969114;28;20055;-78
2022/05/05 04:41:42;;;;;;;11.10;2.28;;;;;;;7.97;40.72;99893.16;4946078;28;20050;-78
2022/05/05 04:44:08;;;;;;;12.43;2.53;;;;;;;8.00;40.80;99895.38;4955837;28;20058;-77
2022/05/05 04:46:35;;;;;;;7.40;2.33;;;;;;;8.05;40.42;99911.78;4972275;28;20051;-77
2022/05/05 04:49:01;;;;;;;20.70;2.63;;;;;;;8.03;40.26;99906.59;4973691;28;20133;-77
2022/05/05 04:51:27;;;;;;;8.90;2.17;;;;;;;8.10;39.95;99906.38;4970676;28;20058;-75
2022/05/05 04:53:54;;;;;;;8.27;2.60;;;;;;;8.18;39.70;99907.81;4954488;28;20047;-77
2022/05/05 04:56:20;;;;;;;10.65;2.60;;;;;;;8.17;39.67;99909.72;4965247;28;20085;-78
2022/05/05 04:58:46;;;;;;;6.80;2.22;;;;;;;8.25;39.33;99911.16;4970223;28;20060;-77
2022/05/05 05:01:12;;;;;;;11.98;2.40;;;;;;;8.32;39.15;99919.13;4984914;28;20077;-76
2022/05/05 05:03:39;;;;;;;9.07;2.30;;;;;;;8.28;39.07;99916.13;4967116;28;20050;-76
2022/05/05 05:06:08;;;;;;;9.65;2.70;;;;;;;8.29;38.97;99919.66;4945233;28;20081;-78
2022/05/05 05:08:34;;;;;;;11.63;2.45;;;;;;;8.30;38.95;99922.13;4927103;28;20082;-76
2022/05/05 05:11:00;;;;;;;8.57;2.40;;;;;;;8.31;38.58;99929.22;4968716;28;20452;-76
2022/05/05 05:13:27;;;;;;;7.03;1.92;;;;;;;8.42;38.37;99923.84;4952578;28;20145;-78
2022/05/05 05:15:53;;;;;;;8.80;2.47;;;;;;;8.42;38.08;99924.69;4982388;28;20058;-79
2022/05/05 05:18:19;;;;;;;8.70;2.08;;;;;;;8.55;37.39;99928.13;4968611;28;20055;-78
2022/05/05 05:20:46;;;;;;;14.88;2.85;;;;;;;8.48;37.14;99917.38;4963649;28;20058;-78
2022/05/05 05:23:13;;;;;;;11.15;2.65;;;;;;;8.53;36.99;99930.28;4957113;28;20110;-79
2022/05/05 05:25:39;;;;;;;12.63;2.75;;;;;;;8.55;36.78;99925.38;4953068;28;20495;-78
2022/05/05 05:28:06;;;;;;;11.50;2.20;;;;;;;8.70;36.77;99941.06;4949847;28;20046;-77
2022/05/05 05:30:33;;;;;;;10.07;2.00;;;;;;;8.72;36.92;99934.25;4955818;28;20047;-78
2022/05/05 05:32:59;;;;;;;7.50;1.85;;;;;;;8.65;37.46;99928.19;4953341;28;20066;-78
2022/05/05 05:35:25;;;;;;;7.47;2.03;;;;;;;8.70;37.11;99949.22;4968781;28;20438;-78
2022/05/05 05:37:52;;;;;;;9.05;2.00;;;;;;;8.79;37.04;99945.75;4968556;28;20409;-78
2022/05/05 05:40:18;;;;;;;5.50;1.60;;;;;;;8.79;36.75;99955.88;4955315;28;20043;-78
2022/05/05 05:42:45;;;;;;;8.82;2.00;;;;;;;8.92;36.55;99951.88;4966772;28;20392;-78
2022/05/05 05:45:11;;;;;;;8.68;1.90;;;;;;;8.92;36.25;99949.16;4951948;28;20515;-78
2022/05/05 05:47:37;;;;;;;14.43;2.13;;;;;;;8.98;36.48;99955.47;4970328;28;20515;-77
2022/05/05 05:50:04;;;;;;;6.65;2.00;;;;;;;8.98;36.19;99950.84;4953240;28;20050;-78
2022/05/05 05:52:31;;;;;;;5.53;2.15;;;;;;;8.88;35.75;99962.47;4954493;28;20066;-79
2022/05/05 05:54:59;;;;;;;8.18;2.10;;;;;;;8.92;35.98;99949.97;4959633;28;20078;-80
2022/05/05 05:57:25;;;;;;;5.15;1.70;;;;;;;8.97;35.57;99954.63;4982246;28;20046;-78
2022/05/05 05:59:51;;;;;;;12.65;2.00;;;;;;;9.05;35.21;99945.97;4969965;28;20082;-80
2022/05/05 06:05:03;;;;;;;10.18;1.75;;;;;;;9.11;34.62;99951.47;4950818;28;20087;-77
2022/05/05 06:07:30;;;;;;;3.95;1.63;;;;;;;9.11;34.52;99957.75;4969785;28;20056;-78
2022/05/05 06:09:56;;;;;;;7.43;1.95;;;;;;;9.14;34.12;99964.59;4966986;28;20534;-78
2022/05/05 06:12:23;;;;;;;5.60;1.70;;;;;;;9.10;33.77;99958.84;4954170;28;20050;-78
2022/05/05 06:14:49;;;;;;;13.05;2.58;;;;;;;9.24;34.06;99975.59;4970934;28;20061;-79
2022/05/05 06:17:16;;;;;;;9.30;2.10;;;;;;;9.26;33.20;99958.97;4969528;28;20050;-80
2022/05/05 06:19:43;;;;;;;8.90;1.93;;;;;;;9.43;33.24;99958.78;4970852;28;20054;-78
2022/05/05 06:22:09;;;;;;;5.70;1.98;;;;;;;9.51;33.17;99971.94;4952999;28;20310;-79
2022/05/05 06:24:35;;;;;;;8.05;2.00;;;;;;;9.66;33.07;99982.13;4952730;28;20447;-77
2022/05/05 06:27:02;;;;;;;8.15;2.10;;;;;;;9.84;32.56;99969.94;4968630;28;20054;-80
2022/05/05 06:29:30;;;;;;;15.35;2.45;;;;;;;9.86;32.42;99962.31;4953250;28;20058;-80
2022/05/05 06:31:56;;;;;;;5.90;2.05;;;;;;;9.95;32.13;99976.25;4963591;28;20089;-80
2022/05/05 06:34:22;;;;;;;14.35;2.30;;;;;;;10.05;32.01;99970.84;4954210;28;20051;-79
2022/05/05 06:36:48;;;;;;;7.90;2.10;;;;;;;10.07;31.63;99974.13;4947620;28;20055;-78
2022/05/05 06:39:15;;;;;;;6.78;2.20;;;;;;;10.15;31.18;99972.81;4956920;28;20470;-78
2022/05/05 06:41:41;;;;;;;6.88;1.85;;;;;;;10.19;31.62;99979.38;4951164;28;20043;-78
2022/05/05 06:44:07;;;;;;;9.30;2.20;;;;;;;10.27;31.48;99982.69;4954581;28;20051;-78
2022/05/05 06:46:34;;;;;;;14.15;2.03;;;;;;;10.24;31.02;99980.50;4955115;28;20047;-77
2022/05/05 06:49:00;;;;;;;10.95;2.35;;;;;;;10.19;31.17;99984.03;4964736;28;20063;-77
2022/05/05 06:51:27;;;;;;;7.38;2.10;;;;;;;10.19;31.56;99984.03;4958112;28;20512;-75
2022/05/05 06:53:53;;;;;;;7.70;1.80;;;;;;;10.38;31.22;99997.19;4971509;28;20050;-77
2022/05/05 06:56:20;;;;;;;11.05;2.40;;;;;;;10.30;31.36;99982.97;4957361;28;20054;-78
2022/05/05 06:58:46;;;;;;;11.45;2.35;;;;;;;10.31;30.58;99992.81;4965459;28;20055;-79
2022/05/05 07:06:43;;;;;;;7.03;1.80;;;;;;;10.00;29.81;100009.09;4974016;28;20051;-74
2022/05/05 07:11:54;;;;;;;10.90;1.60;;;;;;;10.05;29.84;100002.81;4971759;28;20050;-73
2022/05/05 07:14:21;;;;;;;4.65;1.83;;;;;;;10.27;29.50;100001.81;4956068;28;20051;-73
2022/05/05 07:16:47;;;;;;;6.88;1.75;;;;;;;10.23;29.02;100006.97;4973750;28;20074;-73
2022/05/05 07:19:15;;;;;;;4.32;1.50;;;;;;;10.19;28.52;99998.50;4939532;28;20431;-74
2022/05/05 07:21:41;;;;;;;4.78;1.60;;;;;;;10.20;28.41;100007.53;4935156;28;20434;-72
2022/05/05 07:24:08;;;;;;;14.98;1.90;;;;;;;10.39;29.01;100004.31;4955313;28;20660;-71
2022/05/05 07:26:34;;;;;;;4.40;1.40;;;;;;;10.57;28.52;100005.78;4963892;28;20063;-68
2022/05/05 07:29:00;;;;;;;3.45;1.50;;;;;;;10.63;28.46;100002.78;4956506;28;20424;-69
2022/05/05 07:31:26;;;;;;;5.95;1.80;;;;;;;10.61;28.06;99987.72;4966280;28;20050;-73
2022/05/05 07:33:52;;;;;;;3.72;1.42;;;;;;;10.70;27.87;99998.94;4971286;28;20042;-74
2022/05/05 07:36:19;;;;;;;6.10;1.73;;;;;;;10.91;28.05;100013.47;4971464;28;20050;-73
2022/05/05 07:38:45;;;;;;;11.68;1.75;;;;;;;10.95;27.52;100000.09;4953979;28;20078;-72
2022/05/05 07:41:11;;;;;;;8.63;1.70;;;;;;;11.03;27.29;100015.94;4971648;28;20083;-74
2022/05/05 07:43:38;;;;;;;12.77;2.10;;;;;;;10.95;27.15;100005.56;4970488;28;20039;-73
2022/05/05 07:46:04;;;;;;;7.93;1.80;;;;;;;11.10;27.00;100008.31;4972227;28;20125;-75
2022/05/05 07:48:30;;;;;;;10.50;1.75;;;;;;;11.15;26.91;100005.56;4963082;28;20047;-73
2022/05/05 07:50:56;;;;;;;7.35;1.83;;;;;;;11.29;27.04;100011.28;4964891;28;20097;-74
2022/05/05 07:53:23;;;;;;;5.45;1.40;;;;;;;11.35;26.90;100012.94;4953115;28;20062;-74
2022/05/05 07:55:49;;;;;;;6.40;1.63;;;;;;;11.42;26.82;100001.72;4938616;28;20047;-72
2022/05/05 07:58:15;;;;;;;11.45;1.65;;;;;;;11.52;26.77;100008.25;4973291;28;20055;-71
2022/05/05 08:00:41;;;;;;;3.50;1.52;;;;;;;11.46;26.41;99997.31;4971278;28;20047;-73
2022/05/05 08:03:08;;;;;;;7.53;1.60;;;;;;;11.37;26.49;100007.19;4971035;28;20105;-73
2022/05/05 08:05:34;;;;;;;14.10;1.73;;;;;;;11.46;26.21;100013.75;4971403;28;20420;-75
2022/05/05 08:08:00;;;;;;;11.45;1.98;;;;;;;11.49;25.51;100009.66;4950391;28;20145;-74
2022/05/05 08:10:29;;;;;;;6.78;1.50;;;;;;;11.56;25.51;100007.44;4972031;28;20053;-74
2022/05/05 08:12:56;;;;;;;5.53;1.65;;;;;;;11.58;25.80;100004.44;4970222;28;20043;-74
2022/05/05 08:15:23;;;;;;;11.65;3.08;;;;;;;11.66;25.69;100014.81;4973090;28;20106;-75
2022/05/05 08:17:49;;;;;;;11.20;1.80;;;;;;;11.82;25.70;100018.34;4938940;28;20545;-73
2022/05/05 08:20:15;;;;;;;7.93;2.00;;;;;;;11.90;25.70;100019.69;4956295;28;20073;-73
2022/05/05 08:22:42;;;;;;;11.20;2.20;;;;;;;11.93;25.57;100016.41;4970235;28;20399;-73
2022/05/05 08:30:39;;;;;;;11.07;2.47;;;;;;;11.92;25.18;100012.03;4973355;28;20173;-73
2022/05/05 08:33:06;;;;;;;10.45;2.65;;;;;;;11.95;25.10;100008.72;4971915;28;20134;-77
2022/05/05 08:35:32;;;;;;;28.13;3.08;;;;;;;12.04;25.39;100012.56;4937893;28;20051;-75
2022/05/05 08:37:59;;;;;;;8.07;1.98;;;;;;;12.16;24.85;100019.63;4955738;28;20577;-76
2022/05/05 08:40:26;;;;;;;4.80;1.60;;;;;;;12.19;24.68;100019.91;4973273;28;20047;-76
2022/05/05 08:42:54;;;;;;;13.60;2.40;;;;;;;12.26;24.06;100013.31;4953714;28;20043;-77
2022/05/05 08:45:21;;;;;;;9.18;2.33;;;;;;;12.39;24.89;100020.09;4970842;28;20054;-77
2022/05/05 08:47:47;;;;;;;10.40;1.90;;;;;;;12.51;24.75;100017.84;4972524;28;20109;-75
2022/05/05 08:50:15;;;;;;;5.15;1.90;;;;;;;12.63;24.62;100026.53;4955410;28;20134;-73
2022/05/05 08:52:46;;;;;;;7.65;2.15;;;;;;;12.77;24.44;100018.50;4936951;28;20094;-73
2022/05/05 08:55:13;;;;;;;5.15;1.70;;;;;;;12.93;24.35;100018.41;4983603;28;20141;-74
2022/05/05 08:57:39;;;;;;;;;;;;;;;12.97;23.96;100004.94;4979365;28;20134;-74
2022/05/05 09:00:07;;;;;;;5.65;1.58;;;;;;;12.94;23.89;100000.84;4971296;28;19934;-73
2022/05/05 09:02:34;;;;;;;10.55;2.22;;;;;;;12.83;24.00;100013.81;4953975;28;20054;-74
2022/05/05 09:05:00;;;;;;;15.90;2.05;;;;;;;12.83;24.18;100008.31;4936204;29;20059;-74
2022/05/05 09:07:47;;;;;;;9.38;1.70;;;;;;;13.03;24.02;100012.84;4935986;28;20586;-74
2022/05/05 09:10:13;;;;;;;9.20;3.30;;;;;;;13.20;24.29;100011.63;4939639;28;20053;-74
2022/05/05 09:12:39;;;;;;;21.43;2.10;;;;;;;13.36;24.02;100016.97;4972550;28;20054;-73
2022/05/05 09:15:09;;;;;;;6.43;1.85;;;;;;;13.49;23.79;100015.50;4973206;28;20346;-75
2022/05/05 09:17:35;;;;;;;11.88;2.25;;;;;;;13.64;23.53;100025.53;4969856;28;20062;-74
2022/05/05 09:20:06;;;;;;;9.93;2.10;;;;;;;13.73;23.35;100010.06;4972623;28;20063;-73
2022/05/05 09:22:33;;;;;;;8.60;2.00;;;;;;;13.89;23.34;100007.94;4972482;28;20046;-72
2022/05/05 09:25:01;;;;;;;7.85;2.13;;;;;;;14.02;23.01;100015.50;4971710;28;20525;-73
2022/05/05 09:27:31;;;;;;;9.15;2.00;;;;;;;14.09;23.13;100012.38;4955365;28;20423;-73
2022/05/05 09:30:04;;;;;;;11.65;2.10;;;;;;;14.10;22.60;100002.22;4970457;28;20083;-72
2022/05/05 09:32:34;;;;;;;6.90;1.65;;;;;;;14.24;22.87;100007.81;4959447;28;20476;-73
2022/05/05 09:35:02;;;;;;;9.32;2.60;;;;;;;14.35;22.84;100019.50;4938983;28;20589;-73
2022/05/05 09:37:30;;;;;;;7.97;2.00;;;;;;;14.40;22.50;100013.97;4970480;28;20531;-73
2022/05/05 09:39:58;;;;;;;11.50;2.20;;;;;;;14.42;22.30;99996.03;4971050;28;20059;-75
2022/05/05 09:42:38;;;;;;;5.65;2.22;;;;;;;14.46;22.04;100010.00;4938193;28;20046;-73
2022/05/05 09:45:21;;;;;;;13.35;2.22;;;;;;;14.43;21.76;100011.41;4972363;28;20058;-74
2022/05/05 09:47:51;;;;;;;8.02;2.40;;;;;;;14.43;21.68;100021.63;4962049;28;20101;-73
2022/05/05 09:50:20;;;;;;;5.60;1.90;;;;;;;14.28;22.16;100009.69;4952959;28;20105;-75
2022/05/05 09:58:21;;;;;;;8.68;2.30;;;;;;;14.52;22.25;100011.59;4955323;28;19926;-75
2022/05/05 10:00:58;;;;;;;5.38;1.90;;;;;;;14.55;22.10;100015.66;4954310;28;20448;-75
2022/05/05 10:06:17;;;;;;;;;;;;;;;14.70;22.17;100009.16;4970477;28;20567;-72
2022/05/05 10:08:45;;;;;;;11.30;2.25;;;;;;;14.71;21.96;100008.84;4938822;28;19925;-73
2022/05/05 10:11:15;;;;;;;8.75;2.30;;;;;;;14.77;21.72;100008.81;4971907;28;20507;-74
2022/05/05 10:13:42;;;;;;;8.45;2.28;;;;;;;14.78;21.84;100014.00;4971047;28;20050;-74
2022/05/05 10:16:09;;;;;;;7.72;2.15;;;;;;;14.91;21.77;99995.94;4970405;28;20070;-74
2022/05/05 10:18:38;;;;;;;7.75;2.08;;;;;;;14.97;21.27;100024.16;4970111;28;20198;-74
2022/05/05 10:21:06;;;;;;;24.23;8.48;;;;;;;15.08;21.41;100002.81;4950939;29;20142;-75
2022/05/05 10:23:45;;;;;;;11.30;4.28;;;;;;;15.19;20.93;100020.00;4949929;28;20070;-74
2022/05/05 10:26:12;;;;;;;13.65;3.30;;;;;;;15.24;21.12;100022.66;4957175;28;20058;-73
2022/05/05 10:28:44;;;;;;;13.02;3.30;;;;;;;15.21;20.90;100018.56;4967169;28;20059;-79
2022/05/05 10:31:44;;;;;;;11.27;2.60;;;;;;;15.43;21.06;100022.63;4952022;28;20054;-72
2022/05/05 10:34:18;;;;;;;7.47;2.03;;;;;;;15.62;20.52;100022.56;4970188;28;20447;-71
2022/05/05 10:36:59;;;;;;;12.93;2.30;;;;;;;15.63;20.49;100020.63;4969831;28;20142;-72
2022/05/05 10:39:41;;;;;;;12.82;2.40;;;;;;;15.71;20.91;100012.47;4969911;28;20057;-70
2022/05/05 10:42:33;;;;;;;6.78;2.20;;;;;;;15.85;20.83;100017.16;4968134;28;20062;-71
2022/05/05 10:45:07;;;;;;;6.75;2.03;;;;;;;16.01;20.68;100023.25;4969947;28;20074;-71
2022/05/05 10:48:13;;;;;;;8.38;2.67;;;;;;;16.12;20.25;100002.59;4961997;28;20389;-71
2022/05/05 10:53:32;;;;;;;6.65;2.47;;;;;;;15.87;20.43;100007.47;4950691;28;20051;-71
2022/05/05 10:56:00;;;;;;;8.57;2.30;;;;;;;15.94;20.38;100018.13;4950891;29;20190;-71
2022/05/05 10:58:59;;;;;;;5.85;2.40;;;;;;;16.05;20.29;100010.47;4963162;28;20507;-70
2022/05/05 11:01:25;;;;;;;6.85;2.20;;;;;;;16.23;20.33;100008.72;4963682;28;20055;-71
2022/05/05 11:04:06;;;;;;;7.90;2.00;;;;;;;16.35;19.89;100012.91;4970914;28;20051;-72
2022/05/05 11:06:33;;;;;;;9.05;2.50;;;;;;;16.45;19.57;99996.13;4949268;29;20055;-70
2022/05/05 11:09:00;;;;;;;10.05;2.55;;;;;;;16.62;19.67;100013.97;4950072;28;20043;-72
2022/05/05 11:11:41;;;;;;;6.85;2.20;;;;;;;16.67;19.44;100006.41;4965973;28;20059;-71
2022/05/05 11:22:49;;;;;;;5.07;2.10;;;;;;;17.26;19.49;100010.28;4946089;29;20504;-72
2022/05/05 11:25:17;;;;;;;7.97;2.38;;;;;;;17.43;19.29;99998.53;4967388;28;20509;-71
2022/05/05 11:27:43;;;;;;;10.02;2.60;;;;;;;17.56;19.14;100007.88;4965857;28;20059;-72
2022/05/05 11:30:14;;;;;;;7.03;2.10;;;;;;;17.38;18.95;99996.72;4970842;28;20047;-72
2022/05/05 11:32:44;;;;;;;7.13;2.00;;;;;;;16.98;18.72;100002.91;4970025;28;20085;-71
2022/05/05 11:35:11;;;;;;;9.00;2.53;;;;;;;16.97;19.06;100006.81;4955668;28;20109;-73
2022/05/05 11:37:43;;;;;;;8.27;2.42;;;;;;;17.21;19.08;100002.94;4972746;28;20081;-78
2022/05/05 11:40:12;;;;;;;7.03;2.13;;;;;;;17.61;19.13;100009.69;4949566;28;20059;-78
2022/05/05 11:44:14;;;;;;;16.85;2.42;;;;;;;17.83;18.72;100009.63;4954161;28;20078;-80
2022/05/05 11:45:29;;;;;;;10.57;2.20;;;;;;;18.18;18.89;99986.84;4973087;28;20496;-81
2022/05/05 11:47:55;;;;;;;5.18;2.05;;;;;;;18.58;18.92;99996.19;4974884;28;20398;-80
2022/05/05 11:50:22;;;;;;;13.27;2.60;;;;;;;18.95;18.99;99999.44;4956826;28;20050;-80
2022/05/05 11:52:48;;;;;;;7.17;2.10;;;;;;;19.32;17.85;100005.44;4969050;28;20070;-80
2022/05/05 11:55:21;;;;;;;8.35;2.53;;;;;;;19.65;17.57;99996.56;4954920;28;20309;-80
2022/05/05 11:57:50;;;;;;;8.02;2.05;;;;;;;19.88;17.30;100001.88;4960514;28;20047;-78
2022/05/05 12:03:05;;;;;;;11.93;2.55;;;;;;;20.08;17.30;100000.34;4956795;28;20054;-81
2022/05/05 12:05:33;;;;;;;11.88;2.83;;;;;;;20.25;17.80;99991.09;4938579;28;20137;-81
2022/05/05 12:07:59;;;;;;;11.52;2.60;;;;;;;20.34;17.42;99995.78;4956325;28;20474;-82
2022/05/05 12:10:34;;;;;;;15.73;2.88;;;;;;;19.96;17.42;100003.81;4956575;28;20558;-82
2022/05/05 12:13:02;;;;;;;11.05;2.30;;;;;;;20.08;17.53;99999.50;4957182;28;20042;-81
2022/05/05 12:15:29;;;;;;;9.48;2.60;;;;;;;20.05;17.09;99967.69;4972816;28;20499;-81
2022/05/05 12:17:59;;;;;;;;;;;;;;;20.25;16.84;99993.06;4969006;28;20622;-81
2022/05/05 12:20:28;;;;;;;10.15;2.38;;;;;;;20.30;17.01;99989.28;4972418;28;19973;-82
2022/05/05 12:22:56;;;;;;;8.88;2.50;;;;;;;20.29;16.74;100002.34;4956369;28;20039;-81
2022/05/05 12:25:24;;;;;;;12.63;2.70;;;;;;;20.27;16.62;99999.88;4954528;29;20591;-81
2022/05/05 12:28:03;;;;;;;8.93;2.65;;;;;;;20.38;16.52;99989.22;4969683;28;20046;-83
2022/05/05 12:30:30;;;;;;;6.70;1.98;;;;;;;20.44;16.68;99991.78;4959151;28;20081;-81
2022/05/05 12:32:57;;;;;;;8.20;2.28;;;;;;;20.61;16.62;99996.41;4978328;28;20066;-81